»·PEaware :: N698J M94-S36

N698J :: M94-S36

FLIGHT INFORMATION

Flight Status: Arrived
Operator: Privately registered:
United States
More flights under this callsign
Pilot: Ahmad S. (5672)
Aircraft: BEECH AIRCRAFT BARON
(BE58)
More flights by this aircraft type
Origin: M94 Desert Aire
United States
Destination: S36 Norman Grier Field
United States
More flights between these airports :: More routes between these airports
Route: +PAPPS V204 YKM V4 BLAKO
File this flight plan on PilotEdge
Remarks:
Altitude:
(Current/Filed)
10,000ft
Speed:
(Current/Filed)
150kts
Departed: 03-May-20 01:51 PM
Arrived: 03-May-20 02:41 PM
Distance/Time
Traveled:
97nm/0:50
Distance/Time
To Go:
Arrived

Flight Plot

Page will automatically refresh every two minutes.

Flight plan parsing failed; only flown route is shown


Map Options




Map Legend


Flown Route
Filed Route
Departure Airport
Arrival Airport
Navaid (VOR, NDB)
Fix

Horizontal Profiles

Position Reports

Time Latitude Longitude Heading Altitude Ground
Speed
03-May-20 13:43 46.689209 -119.924378 131 573ft 0kts
03-May-20 13:44 46.689209 -119.924378 131 573ft 0kts
03-May-20 13:45 46.689209 -119.924378 131 573ft 0kts
03-May-20 13:46 46.689209 -119.924378 131 573ft 0kts
03-May-20 13:47 46.688601 -119.923597 130 573ft 17kts
03-May-20 13:48 46.685071 -119.913005 244 573ft 3kts
03-May-20 13:49 46.685156 -119.913454 294 573ft 19kts
03-May-20 13:50 46.694075 -119.947097 254 1321ft 119kts
03-May-20 13:51 46.678554 -119.929545 114 2313ft 121kts
03-May-20 13:52 46.647098 -119.904630 176 3263ft 156kts
03-May-20 13:53 46.602475 -119.896808 175 4104ft 165kts
03-May-20 13:54 46.555302 -119.887088 174 4932ft 178kts
03-May-20 13:55 46.505857 -119.876654 174 5733ft 181kts
03-May-20 13:56 46.457348 -119.866129 174 6481ft 170kts
03-May-20 13:57 46.434268 -119.898292 300 7192ft 159kts
03-May-20 13:58 46.457887 -119.953419 290 7733ft 164kts
03-May-20 13:59 46.473782 -120.015607 286 8230ft 160kts
03-May-20 14:00 46.487482 -120.075253 286 8715ft 152kts
03-May-20 14:01 46.500646 -120.133224 286 9219ft 151kts
03-May-20 14:02 46.513835 -120.191359 285 9706ft 149kts
03-May-20 14:03 46.526820 -120.248883 285 10007ft 156kts
03-May-20 14:04 46.540978 -120.311360 285 10003ft 165kts
03-May-20 14:05 46.555338 -120.375371 285 10002ft 167kts
03-May-20 14:06 46.570457 -120.439578 294 10002ft 169kts
03-May-20 14:07 46.596974 -120.497965 301 10009ft 184kts
03-May-20 14:08 46.625979 -120.558452 301 10001ft 177kts
03-May-20 14:09 46.653691 -120.616634 301 10001ft 172kts
03-May-20 14:10 46.680851 -120.673790 301 10002ft 171kts
03-May-20 14:11 46.708132 -120.731220 301 10004ft 172kts
03-May-20 14:12 46.735332 -120.788575 301 10005ft 172kts
03-May-20 14:13 46.762789 -120.846593 301 10009ft 176kts
03-May-20 14:14 46.790866 -120.905970 301 10012ft 182kts
03-May-20 14:15 46.819363 -120.966316 301 10007ft 176kts
03-May-20 14:16 46.846821 -121.024827 301 10011ft 174kts
03-May-20 14:17 46.874135 -121.083083 300 10018ft 173kts
03-May-20 14:18 46.901535 -121.141628 300 10017ft 174kts
03-May-20 14:19 46.928852 -121.200070 300 10015ft 174kts
03-May-20 14:20 46.956072 -121.258481 300 10022ft 173kts
03-May-20 14:21 46.983248 -121.316901 300 10025ft 174kts
03-May-20 14:22 47.010541 -121.375681 300 10044ft 174kts
03-May-20 14:23 47.037844 -121.434614 300 10041ft 175kts
03-May-20 14:24 47.065181 -121.493743 300 10042ft 175kts
03-May-20 14:25 47.092576 -121.553133 300 10045ft 175kts
03-May-20 14:27 47.119858 -121.612407 299 10049ft 175kts
03-May-20 14:28 47.147172 -121.671903 299 10053ft 175kts
03-May-20 14:29 47.174914 -121.732484 299 9641ft 187kts
03-May-20 14:30 47.202590 -121.792902 299 8631ft 171kts
03-May-20 14:31 47.225373 -121.843289 297 7601ft 123kts
03-May-20 14:32 47.242970 -121.881825 296 6549ft 110kts
03-May-20 14:33 47.260043 -121.917485 297 6032ft 93kts
03-May-20 14:34 47.275946 -121.950114 297 5440ft 110kts
03-May-20 14:35 47.294324 -121.991185 297 4492ft 127kts
03-May-20 14:36 47.313394 -122.036689 296 3506ft 133kts
03-May-20 14:37 47.334584 -122.077428 342 2522ft 125kts
03-May-20 14:38 47.368284 -122.088848 328 1550ft 117kts
03-May-20 14:39 47.361620 -122.111611 164 910ft 80kts
03-May-20 14:40 47.339084 -122.104017 170 469ft 66kts
03-May-20 14:41 47.333161 -122.101995 35 469ft 9kts
03-May-20 14:42 47.339626 -122.103651 350 469ft 19kts
03-May-20 14:42 47.340337 -122.103149 267 469ft 0kts
03-May-20 14:44 47.340337 -122.103149 267 469ft 0kts
03-May-20 14:45 47.340337 -122.103149 267 469ft 0kts
03-May-20 14:45 47.340337 -122.103149 267 469ft 0kts
03-May-20 14:46 47.340337 -122.103149 267 469ft 0kts
03-May-20 14:48 47.340337 -122.103149 267 469ft 0kts
03-May-20 14:48 47.340337 -122.103149 267 469ft 0kts
03-May-20 14:49 47.340337 -122.103149 267 469ft 0kts
03-May-20 14:51 47.340337 -122.103149 267 469ft 0kts
03-May-20 14:51 47.340337 -122.103149 267 469ft 0kts
03-May-20 14:52 47.340337 -122.103149 267 469ft 0kts
03-May-20 14:53 47.340337 -122.103149 267 469ft 0kts
03-May-20 14:54 47.340337 -122.103149 267 469ft 0kts

Navigation Log

Ident Type
Flight plan parsing failed, navigation log unavailable